createdAt,value
2019-03-12T00:00:36.810Z,7.93
2019-03-12T00:05:42.551Z,7.93
2019-03-12T00:10:48.295Z,7.37
2019-03-12T00:15:54.007Z,8.03
2019-03-12T00:20:59.739Z,6.53
2019-03-12T00:26:05.418Z,7.77
2019-03-12T00:31:11.274Z,8.23
2019-03-12T00:36:17.042Z,9.03
2019-03-12T00:41:22.709Z,8.73
2019-03-12T00:46:28.295Z,9.33
2019-03-12T00:51:34.041Z,11.33
2019-03-12T00:56:39.711Z,13.13
2019-03-12T01:01:45.473Z,12.97
2019-03-12T01:06:51.259Z,15.03
2019-03-12T01:11:56.934Z,11.43
2019-03-12T01:17:02.681Z,9.17
2019-03-12T01:22:08.435Z,8.97
2019-03-12T01:27:14.056Z,9.07
2019-03-12T01:32:19.877Z,8.10
2019-03-12T01:37:25.648Z,8.90
2019-03-12T01:42:31.442Z,9.17
2019-03-12T01:47:37.335Z,9.07
2019-03-12T01:52:43.503Z,8.67
2019-03-12T01:57:50.245Z,7.37
2019-03-12T02:02:57.190Z,7.83
2019-03-12T02:08:02.982Z,9.23
2019-03-12T02:13:08.670Z,8.40
2019-03-12T02:18:14.441Z,7.10
2019-03-12T02:23:21.208Z,6.70
2019-03-12T02:28:27.046Z,7.47
2019-03-12T02:33:32.806Z,8.37
2019-03-12T02:38:38.487Z,7.13
2019-03-12T02:43:44.216Z,7.27
2019-03-12T02:48:49.886Z,7.33
2019-03-12T02:53:56.763Z,7.43
2019-03-12T02:59:02.429Z,7.80
2019-03-12T03:04:08.185Z,8.07
2019-03-12T03:09:14.053Z,7.57
2019-03-12T03:14:31.696Z,9.10
2019-03-12T03:19:37.659Z,8.23
2019-03-12T03:24:44.642Z,6.97
2019-03-12T03:29:50.395Z,8.93
2019-03-12T03:34:56.003Z,7.07
2019-03-12T03:40:02.869Z,9.83
2019-03-12T03:45:09.946Z,7.90
2019-03-12T03:50:17.602Z,6.67
2019-03-12T03:55:23.869Z,6.90
2019-03-12T04:00:29.626Z,8.00
2019-03-12T04:05:35.327Z,7.13
2019-03-12T04:10:41.068Z,8.00
2019-03-12T04:15:47.038Z,7.47
2019-03-12T04:20:53.700Z,7.70
2019-03-12T04:25:59.477Z,8.30
2019-03-12T04:31:05.225Z,10.40
2019-03-12T04:36:11.023Z,9.67
2019-03-12T04:41:16.689Z,10.13
2019-03-12T04:46:22.398Z,11.30
2019-03-12T04:51:28.083Z,12.77
2019-03-12T04:56:33.965Z,11.67
2019-03-12T05:01:39.884Z,11.67
2019-03-12T05:06:45.963Z,13.03
2019-03-12T05:11:51.850Z,12.90
2019-03-12T05:17:00.762Z,12.47
2019-03-12T05:22:06.581Z,14.07
2019-03-12T05:27:12.435Z,13.20
2019-03-12T05:32:19.056Z,13.60
2019-03-12T05:37:25.083Z,13.93
2019-03-12T05:42:31.107Z,16.03
2019-03-12T05:47:37.182Z,12.20
2019-03-12T05:52:43.098Z,14.57
2019-03-12T05:57:49.175Z,15.50
2019-03-12T06:02:55.107Z,14.63
2019-03-12T06:08:00.935Z,15.80
2019-03-12T06:13:06.713Z,15.60
2019-03-12T06:18:12.406Z,15.73
2019-03-12T06:23:18.250Z,16.07
2019-03-12T06:28:24.113Z,15.57
2019-03-12T06:33:50.300Z,16.63
2019-03-12T06:39:13.746Z,14.83
2019-03-12T06:44:27.096Z,13.70
2019-03-12T06:49:34.428Z,12.33
2019-03-12T06:54:41.796Z,15.87
2019-03-12T06:59:51.849Z,14.83
2019-03-12T07:04:59.322Z,15.43
2019-03-12T07:10:09.445Z,13.00
2019-03-12T07:15:16.904Z,12.83
2019-03-12T07:20:33.322Z,12.97
2019-03-12T07:25:46.517Z,12.93
2019-03-12T07:30:54.059Z,12.73
2019-03-12T07:36:07.416Z,12.60
2019-03-12T07:41:32.251Z,12.77
2019-03-12T07:46:56.229Z,11.57
2019-03-12T07:52:18.846Z,11.23
2019-03-12T07:57:29.471Z,10.77
2019-03-12T08:02:51.855Z,11.40
2019-03-12T08:08:11.926Z,11.73
2019-03-12T08:13:28.959Z,11.30
2019-03-12T08:18:52.881Z,11.87
2019-03-12T08:24:15.723Z,12.90
2019-03-12T08:29:31.938Z,14.17
2019-03-12T08:34:48.567Z,13.40
2019-03-12T08:39:56.079Z,14.33
2019-03-12T08:45:11.205Z,14.20
2019-03-12T08:50:18.283Z,14.57
2019-03-12T08:55:34.892Z,14.37
2019-03-12T09:00:45.025Z,12.00
2019-03-12T09:05:52.389Z,13.30
2019-03-12T09:11:02.803Z,12.43
2019-03-12T09:16:10.255Z,14.10
2019-03-12T09:21:26.777Z,11.60
2019-03-12T09:26:40.526Z,12.80
2019-03-12T09:31:57.035Z,10.50
2019-03-12T09:37:04.717Z,10.40
2019-03-12T09:42:28.426Z,10.50
2019-03-12T09:47:51.831Z,8.90
2019-03-12T09:53:08.219Z,7.90
2019-03-12T09:58:15.735Z,7.03
2019-03-12T10:03:29.206Z,7.40
2019-03-12T10:08:51.990Z,6.47
2019-03-12T10:14:11.706Z,6.00
2019-03-12T10:19:31.773Z,5.90
2019-03-12T10:24:51.492Z,5.10
2019-03-12T10:29:58.908Z,5.10
2019-03-12T10:35:26.010Z,4.80
2019-03-12T10:40:36.251Z,5.00
2019-03-12T10:45:43.596Z,4.50
2019-03-12T10:50:49.419Z,3.80
2019-03-12T10:55:55.170Z,4.63
2019-03-12T11:01:00.893Z,5.03
2019-03-12T11:06:06.659Z,3.90
2019-03-12T11:11:12.346Z,3.57
2019-03-12T11:16:18.145Z,4.27
2019-03-12T11:21:25.073Z,3.80
2019-03-12T11:26:30.835Z,3.30
2019-03-12T11:31:36.576Z,2.90
2019-03-12T11:36:42.574Z,2.60
2019-03-12T11:41:48.447Z,2.50
2019-03-12T11:46:54.266Z,2.37
2019-03-12T11:52:00.122Z,3.50
2019-03-12T11:57:05.879Z,2.90
2019-03-12T12:02:12.799Z,2.80
2019-03-12T12:07:18.703Z,3.03
2019-03-12T12:12:24.555Z,2.80
2019-03-12T12:17:30.453Z,2.43
2019-03-12T12:22:36.312Z,2.23
2019-03-12T12:27:42.221Z,2.33
2019-03-12T12:32:48.189Z,1.83
2019-03-12T12:37:53.965Z,2.33
2019-03-12T12:42:59.784Z,2.00
2019-03-12T12:48:05.805Z,2.20
2019-03-12T12:53:11.786Z,1.80
2019-03-12T12:58:17.681Z,1.70
2019-03-12T13:03:23.380Z,1.83
2019-03-12T13:08:29.146Z,2.30
2019-03-12T13:13:35.017Z,1.50
2019-03-12T13:18:41.107Z,1.50
2019-03-12T13:23:47.271Z,1.60
2019-03-12T13:28:53.138Z,1.30
2019-03-12T13:33:59.031Z,1.47
2019-03-12T13:39:06.857Z,1.37
2019-03-12T13:44:14.343Z,1.77
2019-03-12T13:49:20.323Z,1.43
2019-03-12T13:54:26.302Z,1.90
2019-03-12T13:59:32.266Z,2.00
2019-03-12T14:04:38.228Z,2.03
2019-03-12T14:09:44.125Z,2.00
2019-03-12T14:14:49.979Z,2.70
2019-03-12T14:19:55.876Z,1.90
2019-03-12T14:25:02.198Z,2.37
2019-03-12T14:30:09.850Z,2.20
2019-03-12T14:35:16.126Z,2.10
2019-03-12T14:40:22.098Z,1.70
2019-03-12T14:45:29.532Z,2.10
2019-03-12T14:50:35.457Z,1.90
2019-03-12T14:55:41.203Z,2.03
2019-03-12T15:00:47.071Z,2.10
2019-03-12T15:05:53.056Z,1.40
2019-03-12T15:10:58.860Z,1.70
2019-03-12T15:16:04.844Z,1.73
2019-03-12T15:21:10.597Z,1.87
2019-03-12T15:26:16.479Z,1.50
2019-03-12T15:31:22.424Z,1.90
2019-03-12T15:36:28.249Z,1.00
2019-03-12T15:41:35.138Z,1.40
2019-03-12T15:46:40.997Z,2.27
2019-03-12T15:51:46.787Z,1.60
2019-03-12T15:56:52.667Z,2.30
2019-03-12T16:01:58.584Z,1.43
2019-03-12T16:07:04.493Z,1.83
2019-03-12T16:12:10.819Z,1.70
2019-03-12T16:17:16.644Z,2.37
2019-03-12T16:22:22.687Z,2.10
2019-03-12T16:27:28.574Z,2.40
2019-03-12T16:32:35.506Z,2.37
2019-03-12T16:37:41.603Z,2.87
2019-03-12T16:42:47.533Z,2.53
2019-03-12T16:47:54.258Z,2.37
2019-03-12T16:53:00.181Z,2.90
2019-03-12T16:58:06.562Z,2.30
2019-03-12T17:03:12.639Z,2.50
2019-03-12T17:08:18.722Z,2.10
2019-03-12T17:13:26.034Z,2.50
2019-03-12T17:18:32.033Z,2.20
2019-03-12T17:23:37.922Z,2.00
2019-03-12T17:28:43.730Z,2.07
2019-03-12T17:33:49.646Z,1.90
2019-03-12T17:38:55.892Z,2.10
2019-03-12T17:44:01.820Z,2.40
2019-03-12T17:49:08.761Z,2.27
2019-03-12T17:54:14.521Z,2.97
2019-03-12T17:59:20.490Z,2.60
2019-03-12T18:04:26.473Z,3.37
2019-03-12T18:09:32.415Z,2.80
2019-03-12T18:14:38.530Z,2.90
2019-03-12T18:19:44.505Z,2.53
2019-03-12T18:24:52.115Z,3.13
2019-03-12T18:29:58.077Z,2.80
2019-03-12T18:35:05.071Z,2.83
2019-03-12T18:40:13.785Z,2.93
2019-03-12T18:45:27.014Z,3.03
2019-03-12T18:50:32.922Z,3.70
2019-03-12T18:55:46.247Z,3.20
2019-03-12T19:00:53.073Z,4.13
2019-03-12T19:06:00.069Z,3.50
2019-03-12T19:11:06.342Z,3.77
2019-03-12T19:16:12.740Z,4.00
2019-03-12T19:21:18.797Z,3.70
2019-03-12T19:26:24.706Z,4.37
2019-03-12T19:31:50.303Z,4.17
2019-03-12T19:36:56.521Z,3.77
2019-03-12T19:42:02.488Z,4.20
2019-03-12T19:47:08.371Z,3.13
2019-03-12T19:52:14.373Z,3.07
2019-03-12T19:57:20.283Z,4.07
2019-03-12T20:02:26.665Z,3.57
2019-03-12T20:07:32.745Z,3.73
2019-03-12T20:13:14.936Z,3.73
2019-03-12T20:18:43.262Z,3.80
2019-03-12T20:24:14.844Z,4.20
2019-03-12T20:29:46.335Z,4.20
2019-03-12T20:35:25.493Z,3.40
2019-03-12T20:40:55.825Z,3.53
2019-03-12T20:46:14.485Z,3.83
2019-03-12T20:51:29.047Z,3.20
2019-03-12T20:57:11.702Z,3.23
2019-03-12T21:02:37.020Z,3.50
2019-03-12T21:08:19.433Z,3.40
2019-03-12T21:13:50.028Z,3.37
2019-03-12T21:19:15.828Z,3.30
2019-03-12T21:24:41.778Z,2.53
2019-03-12T21:29:47.718Z,2.67
2019-03-12T21:34:54.105Z,2.87
2019-03-12T21:40:00.267Z,2.90
2019-03-12T21:45:09.105Z,3.67
2019-03-12T21:50:14.953Z,2.73
2019-03-12T21:55:20.616Z,2.50
2019-03-12T22:00:26.503Z,2.80
2019-03-12T22:05:32.223Z,3.10
2019-03-12T22:10:38.270Z,3.00
2019-03-12T22:15:44.016Z,3.30
2019-03-12T22:20:51.372Z,2.53
2019-03-12T22:25:57.291Z,2.90
2019-03-12T22:31:04.181Z,3.37
2019-03-12T22:36:10.193Z,3.13
2019-03-12T22:41:15.932Z,2.77
2019-03-12T22:46:21.728Z,2.90
2019-03-12T22:51:27.479Z,2.60
2019-03-12T22:56:34.837Z,3.37
2019-03-12T23:01:41.720Z,2.77
2019-03-12T23:07:05.416Z,3.27
2019-03-12T23:12:19.309Z,3.23
2019-03-12T23:17:25.890Z,3.43
2019-03-12T23:22:31.782Z,3.40
2019-03-12T23:27:37.759Z,3.40
2019-03-12T23:32:43.533Z,2.80
2019-03-12T23:37:49.309Z,3.47
2019-03-12T23:42:55.177Z,3.73
2019-03-12T23:48:00.978Z,3.10
2019-03-12T23:53:07.326Z,3.70
2019-03-12T23:58:13.089Z,3.13
